createdAt,value
2017-09-15T00:00:45.343Z,999.74
2017-09-15T00:01:45.361Z,999.69
2017-09-15T00:02:45.366Z,999.77
2017-09-15T00:03:45.407Z,999.79
2017-09-15T00:04:45.408Z,999.79
2017-09-15T00:05:45.367Z,999.80
2017-09-15T00:06:45.290Z,999.83
2017-09-15T00:07:45.332Z,999.82
2017-09-15T00:08:45.365Z,999.89
2017-09-15T00:09:45.331Z,999.82
2017-09-15T00:10:45.364Z,999.85
2017-09-15T00:11:45.307Z,999.86
2017-09-15T00:12:45.434Z,999.83
2017-09-15T00:13:45.362Z,999.90
2017-09-15T00:14:45.308Z,999.92
2017-09-15T00:15:45.310Z,999.95
2017-09-15T00:16:45.426Z,999.90
2017-09-15T00:17:45.354Z,999.89
2017-09-15T00:18:45.424Z,999.92
2017-09-15T00:19:45.401Z,999.91
2017-09-15T00:20:45.372Z,999.96
2017-09-15T00:21:45.357Z,1000.01
2017-09-15T00:23:45.358Z,1000.07
2017-09-15T00:24:45.428Z,1000.07
2017-09-15T00:25:45.374Z,1000.09
2017-09-15T00:26:45.378Z,1000.13
2017-09-15T00:27:45.382Z,1000.15
2017-09-15T00:28:45.405Z,1000.15
2017-09-15T00:29:45.377Z,1000.18
2017-09-15T00:30:45.453Z,1000.17
2017-09-15T00:31:45.336Z,1000.16
2017-09-15T00:32:45.409Z,1000.18
2017-09-15T00:33:45.328Z,1000.14
2017-09-15T00:34:45.385Z,1000.21
2017-09-15T00:35:45.384Z,1000.21
2017-09-15T00:36:45.428Z,1000.21
2017-09-15T00:37:45.337Z,1000.24
2017-09-15T00:38:45.368Z,1000.31
2017-09-15T00:39:45.387Z,1000.23
2017-09-15T00:40:45.433Z,1000.33
2017-09-15T00:41:45.385Z,1000.33
2017-09-15T00:42:45.389Z,1000.31
2017-09-15T00:43:45.401Z,1000.28
2017-09-15T00:44:45.402Z,1000.33
2017-09-15T00:45:45.390Z,1000.33
2017-09-15T00:46:45.435Z,1000.37
2017-09-15T00:47:45.390Z,1000.37
2017-09-15T00:48:45.426Z,1000.43
2017-09-15T00:49:45.428Z,1000.41
2017-09-15T00:50:45.338Z,1000.39
2017-09-15T00:51:45.385Z,1000.41
2017-09-15T00:52:45.404Z,1000.40
2017-09-15T00:53:45.338Z,1000.45
2017-09-15T00:54:45.389Z,1000.43
2017-09-15T00:55:45.433Z,1000.48
2017-09-15T00:56:45.387Z,1000.48
2017-09-15T00:57:45.397Z,1000.45
2017-09-15T00:58:45.398Z,1000.45
2017-09-15T00:59:45.350Z,1000.53
2017-09-15T01:00:45.448Z,1000.49
2017-09-15T01:01:45.538Z,1000.56
2017-09-15T01:02:45.399Z,1000.56
2017-09-15T01:03:45.393Z,1000.56
2017-09-15T01:04:45.396Z,1000.52
2017-09-15T01:05:45.445Z,1000.56
2017-09-15T01:06:45.455Z,1000.58
2017-09-15T01:07:45.399Z,1000.62
2017-09-15T01:08:45.403Z,1000.62
2017-09-15T01:09:45.340Z,1000.63
2017-09-15T01:10:45.367Z,1000.70
2017-09-15T01:11:45.339Z,1000.70
2017-09-15T01:12:45.377Z,1000.71
2017-09-15T01:13:45.408Z,1000.75
2017-09-15T01:14:45.373Z,1000.66
2017-09-15T01:15:45.373Z,1000.68
2017-09-15T01:16:45.411Z,1000.74
2017-09-15T01:17:45.408Z,1000.74
2017-09-15T01:18:45.376Z,1000.76
2017-09-15T01:19:45.377Z,1000.71
2017-09-15T01:20:45.346Z,1000.73
2017-09-15T01:21:45.349Z,1000.72
2017-09-15T01:22:45.378Z,1000.71
2017-09-15T01:23:45.409Z,1000.71
2017-09-15T01:24:45.350Z,1000.72
2017-09-15T01:25:45.380Z,1000.76
2017-09-15T01:26:45.457Z,1000.73
2017-09-15T01:27:45.356Z,1000.78
2017-09-15T01:28:45.410Z,1000.76
2017-09-15T01:29:45.420Z,1000.76
2017-09-15T01:30:45.449Z,1000.77
2017-09-15T01:31:45.412Z,1000.76
2017-09-15T01:32:45.405Z,1000.84
2017-09-15T01:33:45.409Z,1000.80
2017-09-15T01:34:45.417Z,1000.84
2017-09-15T01:35:45.461Z,1000.83
2017-09-15T01:36:45.395Z,1000.83
2017-09-15T01:37:45.384Z,1000.81
2017-09-15T01:38:45.420Z,1000.83
2017-09-15T01:39:45.434Z,1000.85
2017-09-15T01:40:45.374Z,1000.85
2017-09-15T01:41:45.432Z,1000.89
2017-09-15T01:42:45.422Z,1000.91
2017-09-15T01:43:45.495Z,1000.87
2017-09-15T01:44:45.471Z,1000.94
2017-09-15T01:45:45.427Z,1000.92
2017-09-15T01:46:45.471Z,1000.91
2017-09-15T01:47:45.404Z,1000.97
2017-09-15T01:48:45.476Z,1000.93
2017-09-15T01:49:45.429Z,1000.94
2017-09-15T01:50:45.426Z,1001.00
2017-09-15T01:51:45.393Z,1000.96
2017-09-15T01:52:45.433Z,1000.95
2017-09-15T01:53:45.480Z,1000.91
2017-09-15T01:54:45.431Z,1000.97
2017-09-15T01:55:45.493Z,1001.02
2017-09-15T01:56:45.381Z,1001.08
2017-09-15T01:57:45.498Z,1001.08
2017-09-15T01:58:45.428Z,1001.08
2017-09-15T01:59:45.390Z,1001.07
2017-09-15T02:00:45.435Z,1001.08
2017-09-15T02:01:45.435Z,1001.11
2017-09-15T02:02:45.481Z,1001.11
2017-09-15T02:03:45.478Z,1001.04
2017-09-15T02:04:45.439Z,1001.11
2017-09-15T02:05:45.485Z,1001.10
2017-09-15T02:06:45.444Z,1001.08
2017-09-15T02:07:45.404Z,1001.09
2017-09-15T02:08:45.439Z,1001.09
2017-09-15T02:09:45.399Z,1001.07
2017-09-15T02:10:45.402Z,1001.08
2017-09-15T02:11:45.406Z,1001.09
2017-09-15T02:12:45.381Z,1001.09
2017-09-15T02:13:45.441Z,1001.07
2017-09-15T02:14:45.440Z,1001.09
2017-09-15T02:15:45.382Z,1001.15
2017-09-15T02:16:45.441Z,1001.13
2017-09-15T02:17:45.445Z,1001.12
2017-09-15T02:18:45.412Z,1001.16
2017-09-15T02:19:45.409Z,1001.10
2017-09-15T02:20:45.444Z,1001.19
2017-09-15T02:21:45.387Z,1001.14
2017-09-15T02:22:45.386Z,1001.18
2017-09-15T02:23:45.410Z,1001.17
2017-09-15T02:24:45.511Z,1001.20
2017-09-15T02:25:45.450Z,1001.22
2017-09-15T02:26:45.415Z,1001.23
2017-09-15T02:27:45.512Z,1001.18
2017-09-15T02:28:45.500Z,1001.24
2017-09-15T02:29:45.454Z,1001.25
2017-09-15T02:30:45.458Z,1001.27
2017-09-15T02:31:45.475Z,1001.32
2017-09-15T02:32:45.529Z,1001.32
2017-09-15T02:33:45.462Z,1001.30
2017-09-15T02:34:45.462Z,1001.29
2017-09-15T02:35:45.455Z,1001.27
2017-09-15T02:36:45.460Z,1001.27
2017-09-15T02:37:45.460Z,1001.28
2017-09-15T02:38:45.459Z,1001.32
2017-09-15T02:39:45.438Z,1001.31
2017-09-15T02:40:45.498Z,1001.37
2017-09-15T02:41:45.409Z,1001.37
2017-09-15T02:42:45.466Z,1001.32
2017-09-15T02:43:45.506Z,1001.36
2017-09-15T02:44:45.460Z,1001.33
2017-09-15T02:45:45.423Z,1001.32
2017-09-15T02:46:45.524Z,1001.31
2017-09-15T02:47:45.435Z,1001.33
2017-09-15T02:48:45.475Z,1001.29
2017-09-15T02:49:45.458Z,1001.35
2017-09-15T02:50:45.444Z,1001.30
2017-09-15T02:51:45.443Z,1001.32
2017-09-15T02:52:45.511Z,1001.38
2017-09-15T02:53:45.435Z,1001.36
2017-09-15T02:54:45.461Z,1001.33
2017-09-15T02:55:45.439Z,1001.36
2017-09-15T02:56:45.444Z,1001.31
2017-09-15T02:57:45.520Z,1001.38
2017-09-15T02:58:45.432Z,1001.34
2017-09-15T02:59:45.432Z,1001.32
2017-09-15T03:00:45.434Z,1001.38
2017-09-15T03:01:45.468Z,1001.43
2017-09-15T03:02:45.406Z,1001.44
2017-09-15T03:03:45.410Z,1001.41
2017-09-15T03:04:45.409Z,1001.40
2017-09-15T03:05:45.474Z,1001.36
2017-09-15T03:06:45.410Z,1001.45
2017-09-15T03:07:45.423Z,1001.38
2017-09-15T03:08:45.446Z,1001.40
2017-09-15T03:09:45.439Z,1001.44
2017-09-15T03:10:45.474Z,1001.46
2017-09-15T03:11:45.443Z,1001.40
2017-09-15T03:12:45.413Z,1001.48
2017-09-15T03:13:45.477Z,1001.46
2017-09-15T03:14:45.447Z,1001.54
2017-09-15T03:15:45.496Z,1001.50
2017-09-15T03:16:45.494Z,1001.49
2017-09-15T03:17:45.446Z,1001.48
2017-09-15T03:18:45.446Z,1001.45
2017-09-15T03:19:45.447Z,1001.50
2017-09-15T03:20:45.497Z,1001.49
2017-09-15T03:21:45.447Z,1001.50
2017-09-15T03:22:45.420Z,1001.49
2017-09-15T03:23:45.432Z,1001.52
2017-09-15T03:24:45.448Z,1001.49
2017-09-15T03:25:45.451Z,1001.47
2017-09-15T03:26:45.423Z,1001.49
2017-09-15T03:27:45.444Z,1001.49
2017-09-15T03:28:45.488Z,1001.48
2017-09-15T03:29:45.501Z,1001.51
2017-09-15T03:30:45.450Z,1001.49
2017-09-15T03:31:45.452Z,1001.49
2017-09-15T03:32:45.452Z,1001.50
2017-09-15T03:33:45.422Z,1001.51
2017-09-15T03:34:45.454Z,1001.53
2017-09-15T03:35:45.430Z,1001.50
2017-09-15T03:36:45.457Z,1001.49
2017-09-15T03:37:45.543Z,1001.52
2017-09-15T03:38:45.493Z,1001.54
2017-09-15T03:39:45.557Z,1001.45
2017-09-15T03:40:45.494Z,1001.49
2017-09-15T03:41:45.558Z,1001.50
2017-09-15T03:42:45.499Z,1001.50
2017-09-15T03:43:45.568Z,1001.58
2017-09-15T03:44:45.500Z,1001.55
2017-09-15T03:45:45.560Z,1001.53
2017-09-15T03:46:45.503Z,1001.56
2017-09-15T03:47:45.562Z,1001.50
2017-09-15T03:48:45.499Z,1001.56
2017-09-15T03:49:45.507Z,1001.50
2017-09-15T03:50:45.504Z,1001.59
2017-09-15T03:51:45.504Z,1001.57
2017-09-15T03:52:45.502Z,1001.58
2017-09-15T03:53:45.553Z,1001.64
2017-09-15T03:54:45.551Z,1001.56
2017-09-15T03:55:45.553Z,1001.63
2017-09-15T03:56:45.506Z,1001.59
2017-09-15T03:57:45.474Z,1001.60
2017-09-15T03:58:45.441Z,1001.59
2017-09-15T03:59:45.475Z,1001.64
2017-09-15T04:00:45.521Z,1001.60
2017-09-15T04:01:45.446Z,1001.57
2017-09-15T04:02:45.442Z,1001.61
2017-09-15T04:03:45.443Z,1001.60
2017-09-15T04:04:45.430Z,1001.57
2017-09-15T04:05:45.445Z,1001.58
2017-09-15T04:06:45.526Z,1001.56
2017-09-15T04:07:45.490Z,1001.62
2017-09-15T04:08:45.485Z,1001.65
2017-09-15T04:09:45.478Z,1001.66
2017-09-15T04:10:45.480Z,1001.64
2017-09-15T04:11:45.502Z,1001.59
2017-09-15T04:12:45.480Z,1001.60
2017-09-15T04:13:45.481Z,1001.62
2017-09-15T04:14:45.462Z,1001.61
2017-09-15T04:15:45.515Z,1001.60
2017-09-15T04:16:45.553Z,1001.66
2017-09-15T04:17:45.542Z,1001.70
2017-09-15T04:18:45.532Z,1001.63
2017-09-15T04:19:45.564Z,1001.61
2017-09-15T04:20:45.514Z,1001.68
2017-09-15T04:21:45.567Z,1001.69
2017-09-15T04:22:45.514Z,1001.71
2017-09-15T04:23:45.589Z,1001.71
2017-09-15T04:24:45.561Z,1001.74
2017-09-15T04:25:45.533Z,1001.74
2017-09-15T04:26:45.572Z,1001.76
2017-09-15T04:27:45.593Z,1001.75
2017-09-15T04:28:45.567Z,1001.75
2017-09-15T04:29:45.568Z,1001.83
2017-09-15T04:30:45.565Z,1001.80
2017-09-15T04:31:45.572Z,1001.83
2017-09-15T04:32:45.567Z,1001.83
2017-09-15T04:33:45.568Z,1001.84
2017-09-15T04:34:45.505Z,1001.86
2017-09-15T04:35:45.570Z,1001.83
2017-09-15T04:36:45.555Z,1001.79
2017-09-15T04:37:45.573Z,1001.83
2017-09-15T04:38:45.692Z,1001.81
2017-09-15T04:39:45.523Z,1001.85
2017-09-15T04:40:45.483Z,1001.84
2017-09-15T04:41:45.528Z,1001.82
2017-09-15T04:42:45.580Z,1001.81
2017-09-15T04:43:45.592Z,1001.81
2017-09-15T04:44:45.535Z,1001.81
2017-09-15T04:45:45.530Z,1001.89
2017-09-15T04:46:45.581Z,1001.80
2017-09-15T04:47:45.546Z,1001.85
2017-09-15T04:48:45.496Z,1001.82
2017-09-15T04:49:45.469Z,1001.85
2017-09-15T04:50:45.470Z,1001.90
2017-09-15T04:51:45.502Z,1001.90
2017-09-15T04:52:45.542Z,1001.91
2017-09-15T04:53:45.542Z,1001.89
2017-09-15T04:54:45.473Z,1001.90
2017-09-15T04:55:45.476Z,1001.89
2017-09-15T04:56:45.540Z,1001.92
2017-09-15T04:57:45.586Z,1001.86
2017-09-15T04:58:45.542Z,1001.87
2017-09-15T04:59:45.597Z,1001.86
2017-09-15T05:00:45.543Z,1001.93
2017-09-15T05:01:45.545Z,1001.86
2017-09-15T05:02:45.605Z,1001.92
2017-09-15T05:03:45.587Z,1001.92
2017-09-15T05:04:45.543Z,1001.86
2017-09-15T05:05:45.544Z,1001.89
2017-09-15T05:06:45.546Z,1001.96
2017-09-15T05:07:45.545Z,1001.98
2017-09-15T05:08:45.529Z,1001.97
2017-09-15T05:09:45.593Z,1001.99
2017-09-15T05:10:45.548Z,1002.00
2017-09-15T05:11:45.561Z,1001.99
2017-09-15T05:12:45.552Z,1001.99
2017-09-15T05:13:45.547Z,1002.01
2017-09-15T05:14:45.492Z,1002.03
2017-09-15T05:15:45.561Z,1002.03
2017-09-15T05:16:45.603Z,1002.05
2017-09-15T05:17:45.516Z,1002.02
2017-09-15T05:18:45.517Z,1002.08
2017-09-15T05:19:45.555Z,1002.07
2017-09-15T05:20:45.602Z,1002.03
2017-09-15T05:21:45.518Z,1002.01
2017-09-15T05:22:45.490Z,1002.06
2017-09-15T05:23:45.555Z,1002.08
2017-09-15T05:24:45.494Z,1002.07
2017-09-15T05:25:45.512Z,1002.02
2017-09-15T05:26:45.521Z,1002.09
2017-09-15T05:27:45.556Z,1002.12
2017-09-15T05:28:45.537Z,1002.08
2017-09-15T05:29:45.603Z,1002.11
2017-09-15T05:30:45.598Z,1002.09
2017-09-15T05:31:45.609Z,1002.11
2017-09-15T05:32:45.507Z,1002.09
2017-09-15T05:33:45.583Z,1002.08
2017-09-15T05:34:45.511Z,1002.12
2017-09-15T05:35:45.613Z,1002.13
2017-09-15T05:36:45.558Z,1002.08
2017-09-15T05:37:45.496Z,1002.10
2017-09-15T05:38:45.508Z,1002.12
2017-09-15T05:39:45.512Z,1002.12
2017-09-15T05:40:45.499Z,1002.11
2017-09-15T05:41:45.501Z,1002.07
2017-09-15T05:42:45.498Z,1002.06
2017-09-15T05:43:45.572Z,1002.02
2017-09-15T05:44:45.537Z,1002.06
2017-09-15T05:45:45.527Z,1002.05
2017-09-15T05:46:45.462Z,1002.00
2017-09-15T05:47:45.548Z,1002.07
2017-09-15T05:48:45.517Z,1002.06
2017-09-15T05:49:45.579Z,1002.02
2017-09-15T05:50:45.610Z,1002.06
2017-09-15T05:51:45.592Z,1002.04
2017-09-15T05:52:45.609Z,1002.04
2017-09-15T05:53:45.577Z,1002.04
2017-09-15T05:54:45.549Z,1002.01
2017-09-15T05:55:45.639Z,1002.00
2017-09-15T05:56:45.517Z,1002.05
2017-09-15T05:57:45.507Z,1002.04
2017-09-15T05:58:45.536Z,1002.05
2017-09-15T05:59:45.567Z,1002.04
2017-09-15T06:00:45.567Z,1002.02
2017-09-15T06:01:45.577Z,1001.96
2017-09-15T06:02:45.515Z,1001.99
2017-09-15T06:03:45.512Z,1001.98
2017-09-15T06:04:45.513Z,1001.96
2017-09-15T06:05:45.572Z,1001.97
2017-09-15T06:06:45.537Z,1001.99
2017-09-15T06:07:45.592Z,1002.01
2017-09-15T06:08:45.577Z,1002.04
2017-09-15T06:09:45.553Z,1002.03
2017-09-15T06:10:45.545Z,1002.03
2017-09-15T06:11:45.546Z,1002.04
2017-09-15T06:12:45.546Z,1002.04
2017-09-15T06:13:45.580Z,1002.06
2017-09-15T06:14:45.518Z,1002.10
2017-09-15T06:15:45.584Z,1002.06
2017-09-15T06:16:45.555Z,1002.01
2017-09-15T06:17:45.531Z,1002.09
2017-09-15T06:18:45.582Z,1002.09
2017-09-15T06:19:45.636Z,1002.10
2017-09-15T06:20:45.530Z,1002.07
2017-09-15T06:21:45.567Z,1002.09
2017-09-15T06:22:45.564Z,1002.14
2017-09-15T06:23:45.613Z,1002.15
2017-09-15T06:24:45.639Z,1002.13
2017-09-15T06:25:45.588Z,1002.09
2017-09-15T06:26:45.631Z,1002.15
2017-09-15T06:27:45.549Z,1002.14
2017-09-15T06:28:45.574Z,1002.18
2017-09-15T06:29:45.508Z,1002.13
2017-09-15T06:30:45.517Z,1002.17
2017-09-15T06:31:45.526Z,1002.12
2017-09-15T06:32:45.515Z,1002.13
2017-09-15T06:33:45.508Z,1002.12
2017-09-15T06:34:45.530Z,1002.09
2017-09-15T06:35:45.553Z,1002.07
2017-09-15T06:36:45.517Z,1002.15
2017-09-15T06:37:45.639Z,1002.17
2017-09-15T06:38:45.597Z,1002.18
2017-09-15T06:39:45.641Z,1002.16
2017-09-15T06:40:45.608Z,1002.15
2017-09-15T06:41:45.594Z,1002.11
2017-09-15T06:42:45.637Z,1002.17
2017-09-15T06:43:45.664Z,1002.17
2017-09-15T06:44:45.657Z,1002.16
2017-09-15T06:45:45.545Z,1002.20
2017-09-15T06:46:45.614Z,1002.20
2017-09-15T06:47:45.671Z,1002.18
2017-09-15T06:48:45.549Z,1002.18
2017-09-15T06:49:45.585Z,1002.17
2017-09-15T06:50:45.567Z,1002.20
2017-09-15T06:51:45.568Z,1002.10
2017-09-15T06:52:45.615Z,1002.13
2017-09-15T06:53:45.648Z,1002.11
2017-09-15T06:54:45.650Z,1002.10
2017-09-15T06:55:45.608Z,1002.10
2017-09-15T06:56:45.656Z,1002.08
2017-09-15T06:57:45.581Z,1002.10
2017-09-15T06:58:45.541Z,1002.02
2017-09-15T06:59:45.542Z,1002.07
2017-09-15T07:00:45.607Z,1002.05
2017-09-15T07:01:45.613Z,1002.05
2017-09-15T07:02:45.575Z,1002.06
2017-09-15T07:03:45.545Z,1002.05
2017-09-15T07:04:45.574Z,1002.05
2017-09-15T07:05:45.547Z,1002.07
2017-09-15T07:06:45.606Z,1002.06
2017-09-15T07:07:45.574Z,1002.08
2017-09-15T07:08:45.610Z,1002.10
2017-09-15T07:09:45.574Z,1002.11
2017-09-15T07:10:45.615Z,1002.12
2017-09-15T07:11:45.680Z,1002.11
2017-09-15T07:12:45.552Z,1002.09
2017-09-15T07:13:45.614Z,1002.10
2017-09-15T07:14:45.554Z,1002.08
2017-09-15T07:15:45.617Z,1002.14
2017-09-15T07:16:45.552Z,1002.20
2017-09-15T07:17:45.624Z,1002.13
2017-09-15T07:18:45.664Z,1002.15
2017-09-15T07:19:45.661Z,1002.18
2017-09-15T07:20:45.567Z,1002.19
2017-09-15T07:21:45.600Z,1002.14
2017-09-15T07:22:45.667Z,1002.20
2017-09-15T07:23:45.621Z,1002.16
2017-09-15T07:24:45.606Z,1002.10
2017-09-15T07:25:45.700Z,1002.17
2017-09-15T07:26:45.621Z,1002.17
2017-09-15T07:27:45.624Z,1002.19
2017-09-15T07:28:45.579Z,1002.22
2017-09-15T07:29:45.681Z,1002.22
2017-09-15T07:30:45.671Z,1002.20
2017-09-15T07:31:45.643Z,1002.26
2017-09-15T07:32:45.631Z,1002.24
2017-09-15T07:33:45.599Z,1002.28
2017-09-15T07:34:45.630Z,1002.24
2017-09-15T07:35:45.660Z,1002.23
2017-09-15T07:36:45.681Z,1002.28
2017-09-15T07:37:45.597Z,1002.23
2017-09-15T07:38:45.603Z,1002.28
2017-09-15T07:39:45.636Z,1002.30
2017-09-15T07:40:45.568Z,1002.34
2017-09-15T07:41:45.577Z,1002.29
2017-09-15T07:42:45.600Z,1002.35
2017-09-15T07:43:45.602Z,1002.36
2017-09-15T07:44:45.601Z,1002.38
2017-09-15T07:45:45.633Z,1002.35
2017-09-15T07:46:45.574Z,1002.36
2017-09-15T07:47:45.606Z,1002.40
2017-09-15T07:48:45.658Z,1002.34
2017-09-15T07:49:45.711Z,1002.30
2017-09-15T07:50:45.683Z,1002.35
2017-09-15T07:51:45.709Z,1002.33
2017-09-15T07:52:45.590Z,1002.38
2017-09-15T07:53:45.639Z,1002.35
2017-09-15T07:54:45.594Z,1002.34
2017-09-15T07:55:45.641Z,1002.33
2017-09-15T07:56:45.638Z,1002.29
2017-09-15T07:57:45.654Z,1002.26
2017-09-15T07:58:45.649Z,1002.32
2017-09-15T07:59:45.608Z,1002.34
2017-09-15T08:00:45.656Z,1002.30
2017-09-15T08:01:45.652Z,1002.26
2017-09-15T08:02:45.664Z,1002.32
2017-09-15T08:03:45.696Z,1002.32
2017-09-15T08:04:45.611Z,1002.23
2017-09-15T08:05:45.699Z,1002.31
2017-09-15T08:06:45.647Z,1002.34
2017-09-15T08:07:45.693Z,1002.31
2017-09-15T08:08:45.719Z,1002.33
2017-09-15T08:09:45.677Z,1002.32
2017-09-15T08:10:45.737Z,1002.32
2017-09-15T08:11:45.665Z,1002.31
2017-09-15T08:12:45.694Z,1002.36
2017-09-15T08:13:45.657Z,1002.31
2017-09-15T08:14:45.614Z,1002.30
2017-09-15T08:15:45.653Z,1002.38
2017-09-15T08:16:45.655Z,1002.38
2017-09-15T08:17:45.704Z,1002.36
2017-09-15T08:18:45.657Z,1002.35
2017-09-15T08:19:45.657Z,1002.33
2017-09-15T08:20:45.705Z,1002.36
2017-09-15T08:21:45.653Z,1002.35
2017-09-15T08:22:45.723Z,1002.35
2017-09-15T08:23:45.670Z,1002.35
2017-09-15T08:24:45.658Z,1002.34
2017-09-15T08:25:45.708Z,1002.37
2017-09-15T08:26:45.629Z,1002.37
2017-09-15T08:27:45.608Z,1002.38
2017-09-15T08:28:45.620Z,1002.39
2017-09-15T08:29:45.630Z,1002.37
2017-09-15T08:31:45.691Z,1002.39
2017-09-15T08:32:45.691Z,1002.38
2017-09-15T08:33:45.633Z,1002.39
2017-09-15T08:34:45.643Z,1002.34
2017-09-15T08:35:45.673Z,1002.33
2017-09-15T08:36:45.636Z,1002.41
2017-09-15T08:37:45.705Z,1002.38
2017-09-15T08:38:45.677Z,1002.34
2017-09-15T08:39:45.644Z,1002.37
2017-09-15T08:40:45.644Z,1002.37
2017-09-15T08:41:45.709Z,1002.31
2017-09-15T08:42:45.609Z,1002.34
2017-09-15T08:43:45.665Z,1002.38
2017-09-15T08:44:45.674Z,1002.36
2017-09-15T08:45:45.710Z,1002.32
2017-09-15T08:46:45.673Z,1002.29
2017-09-15T08:47:45.650Z,1002.30
2017-09-15T08:48:45.714Z,1002.23
2017-09-15T08:49:45.675Z,1002.27
2017-09-15T08:50:45.719Z,1002.27
2017-09-15T08:51:45.651Z,1002.23
2017-09-15T08:52:45.672Z,1002.23
2017-09-15T08:53:45.821Z,1002.23
2017-09-15T08:54:45.727Z,1002.22
2017-09-15T08:55:45.617Z,1002.20
2017-09-15T08:56:45.656Z,1002.24
2017-09-15T08:57:45.620Z,1002.15
2017-09-15T08:58:45.585Z,1002.18
2017-09-15T08:59:45.650Z,1002.16
2017-09-15T09:00:45.592Z,1002.18
2017-09-15T09:01:45.599Z,1002.23
2017-09-15T09:02:45.643Z,1002.15
2017-09-15T09:03:45.623Z,1002.20
2017-09-15T09:04:45.629Z,1002.17
2017-09-15T09:05:45.596Z,1002.16
2017-09-15T09:06:45.620Z,1002.15
2017-09-15T09:07:45.639Z,1002.14
2017-09-15T09:08:45.724Z,1002.14
2017-09-15T09:09:45.667Z,1002.16
2017-09-15T09:10:45.737Z,1002.13
2017-09-15T09:11:45.684Z,1002.11
2017-09-15T09:12:45.688Z,1002.16
2017-09-15T09:13:45.636Z,1002.06
2017-09-15T09:14:45.736Z,1002.09
2017-09-15T09:15:45.743Z,1002.09
2017-09-15T09:16:45.651Z,1002.10
2017-09-15T09:17:45.670Z,1002.13
2017-09-15T09:18:45.684Z,1002.12
2017-09-15T09:19:45.729Z,1002.07
2017-09-15T09:20:45.631Z,1002.05
2017-09-15T09:21:45.745Z,1002.05
2017-09-15T09:22:45.703Z,1002.11
2017-09-15T09:23:45.701Z,1002.09
2017-09-15T09:24:45.702Z,1002.10
2017-09-15T09:25:45.671Z,1002.07
2017-09-15T09:26:45.630Z,1002.12
2017-09-15T09:27:45.706Z,1002.11
2017-09-15T09:28:45.632Z,1002.13
2017-09-15T09:29:45.695Z,1002.13
2017-09-15T09:30:45.632Z,1002.04
2017-09-15T09:31:45.697Z,1002.11
2017-09-15T09:32:45.633Z,1002.16
2017-09-15T09:33:45.694Z,1002.01
2017-09-15T09:34:45.699Z,1001.98
2017-09-15T09:35:45.660Z,1002.07
2017-09-15T09:36:45.698Z,1002.05
2017-09-15T09:37:45.636Z,1002.04
2017-09-15T09:38:45.778Z,1002.01
2017-09-15T09:39:45.728Z,1002.02
2017-09-15T09:40:45.700Z,1001.94
2017-09-15T09:41:45.684Z,1001.99
2017-09-15T09:42:45.705Z,1002.05
2017-09-15T09:43:45.749Z,1001.95
2017-09-15T09:44:45.731Z,1001.99
2017-09-15T09:45:45.707Z,1002.02
2017-09-15T09:46:45.651Z,1002.01
2017-09-15T09:47:45.748Z,1001.95
2017-09-15T09:48:45.669Z,1001.95
2017-09-15T09:49:45.719Z,1001.95
2017-09-15T09:50:45.658Z,1001.95
2017-09-15T09:51:45.653Z,1001.92
2017-09-15T09:52:45.713Z,1001.97
2017-09-15T09:53:45.722Z,1001.97
2017-09-15T09:54:45.704Z,1001.90
2017-09-15T09:55:45.740Z,1001.91
2017-09-15T09:56:45.690Z,1001.91
2017-09-15T09:57:45.665Z,1001.87
2017-09-15T09:58:45.677Z,1001.88
2017-09-15T09:59:45.707Z,1001.84
2017-09-15T10:00:45.650Z,1001.81
2017-09-15T10:01:45.648Z,1001.81
2017-09-15T10:02:45.649Z,1001.83
2017-09-15T10:03:45.713Z,1001.79
2017-09-15T10:04:45.715Z,1001.85
2017-09-15T10:05:45.683Z,1001.83
2017-09-15T10:06:45.680Z,1001.82
2017-09-15T10:07:45.718Z,1001.88
2017-09-15T10:08:45.669Z,1001.81
2017-09-15T10:09:45.642Z,1001.82
2017-09-15T10:10:45.686Z,1001.78
2017-09-15T10:11:45.668Z,1001.79
2017-09-15T10:12:45.644Z,1001.84
2017-09-15T10:13:45.632Z,1001.79
2017-09-15T10:14:45.635Z,1001.80
2017-09-15T10:15:45.727Z,1001.83
2017-09-15T10:16:45.685Z,1001.77
2017-09-15T10:17:45.692Z,1001.78
2017-09-15T10:18:45.790Z,1001.80
2017-09-15T10:19:45.753Z,1001.79
2017-09-15T10:20:45.727Z,1001.82
2017-09-15T10:21:45.683Z,1001.79
2017-09-15T10:22:45.774Z,1001.77
2017-09-15T10:23:45.726Z,1001.71
2017-09-15T10:24:45.777Z,1001.77
2017-09-15T10:25:45.677Z,1001.76
2017-09-15T10:26:45.732Z,1001.76
2017-09-15T10:27:45.767Z,1001.70
2017-09-15T10:28:45.741Z,1001.73
2017-09-15T10:29:45.768Z,1001.68
2017-09-15T10:30:45.733Z,1001.69
2017-09-15T10:31:45.737Z,1001.63
2017-09-15T10:32:45.700Z,1001.60
2017-09-15T10:33:45.713Z,1001.62
2017-09-15T10:34:45.694Z,1001.58
2017-09-15T10:35:45.739Z,1001.59
2017-09-15T10:36:45.699Z,1001.59
2017-09-15T10:37:45.746Z,1001.62
2017-09-15T10:38:45.722Z,1001.63
2017-09-15T10:39:45.786Z,1001.68
2017-09-15T10:40:45.755Z,1001.65
2017-09-15T10:41:45.786Z,1001.62
2017-09-15T10:42:45.692Z,1001.67
2017-09-15T10:43:45.793Z,1001.65
2017-09-15T10:44:45.722Z,1001.63
2017-09-15T10:45:45.744Z,1001.65
2017-09-15T10:46:45.724Z,1001.68
2017-09-15T10:47:45.748Z,1001.64
2017-09-15T10:48:45.788Z,1001.59
2017-09-15T10:49:45.744Z,1001.64
2017-09-15T10:50:45.744Z,1001.61
2017-09-15T10:51:45.811Z,1001.62
2017-09-15T10:52:45.791Z,1001.58
2017-09-15T10:53:45.817Z,1001.62
2017-09-15T10:54:45.707Z,1001.61
2017-09-15T10:55:45.709Z,1001.61
2017-09-15T10:56:45.696Z,1001.61
2017-09-15T10:57:45.758Z,1001.73
2017-09-15T10:58:45.692Z,1001.69
2017-09-15T10:59:45.691Z,1001.67
2017-09-15T11:00:45.756Z,1001.71
2017-09-15T11:01:45.693Z,1001.65
2017-09-15T11:02:45.694Z,1001.64
2017-09-15T11:03:45.702Z,1001.66
2017-09-15T11:04:45.699Z,1001.72
2017-09-15T11:05:45.790Z,1001.72
2017-09-15T11:06:45.697Z,1001.67
2017-09-15T11:07:45.733Z,1001.69
2017-09-15T11:08:45.801Z,1001.66
2017-09-15T11:09:45.740Z,1001.67
2017-09-15T11:10:45.769Z,1001.64
2017-09-15T11:11:45.807Z,1001.69
2017-09-15T11:12:45.769Z,1001.60
2017-09-15T11:13:45.811Z,1001.63
2017-09-15T11:14:45.827Z,1001.60
2017-09-15T11:15:45.722Z,1001.60
2017-09-15T11:16:45.832Z,1001.57
2017-09-15T11:17:45.767Z,1001.57
2017-09-15T11:18:45.792Z,1001.46
2017-09-15T11:19:45.765Z,1001.44
2017-09-15T11:20:45.742Z,1001.37
2017-09-15T11:21:45.713Z,1001.39
2017-09-15T11:22:45.722Z,1001.44
2017-09-15T11:23:45.803Z,1001.37
2017-09-15T11:24:45.726Z,1001.39
2017-09-15T11:25:45.761Z,1001.40
2017-09-15T11:26:45.831Z,1001.41
2017-09-15T11:27:45.717Z,1001.39
2017-09-15T11:28:45.795Z,1001.36
2017-09-15T11:29:45.770Z,1001.34
2017-09-15T11:30:45.707Z,1001.29
2017-09-15T11:31:45.710Z,1001.34
2017-09-15T11:32:45.770Z,1001.33
2017-09-15T11:33:45.751Z,1001.27
2017-09-15T11:34:45.785Z,1001.29
2017-09-15T11:35:45.763Z,1001.34
2017-09-15T11:36:45.730Z,1001.32
2017-09-15T11:37:45.721Z,1001.30
2017-09-15T11:38:45.764Z,1001.28
2017-09-15T11:39:45.723Z,1001.29
2017-09-15T11:40:45.800Z,1001.30
2017-09-15T11:41:45.780Z,1001.28
2017-09-15T11:42:45.800Z,1001.27
2017-09-15T11:43:45.803Z,1001.28
2017-09-15T11:44:45.757Z,1001.31
2017-09-15T11:45:45.783Z,1001.34
2017-09-15T11:46:45.721Z,1001.31
2017-09-15T11:47:45.828Z,1001.30
2017-09-15T11:48:45.715Z,1001.25
2017-09-15T11:49:45.687Z,1001.38
2017-09-15T11:50:45.740Z,1001.36
2017-09-15T11:51:45.745Z,1001.40
2017-09-15T11:52:45.748Z,1001.39
2017-09-15T11:53:45.694Z,1001.32
2017-09-15T11:54:45.723Z,1001.36
2017-09-15T11:55:45.793Z,1001.35
2017-09-15T11:56:45.757Z,1001.34
2017-09-15T11:57:45.743Z,1001.32
2017-09-15T11:58:45.831Z,1001.39
2017-09-15T11:59:45.723Z,1001.40
2017-09-15T12:00:45.725Z,1001.38
2017-09-15T12:01:45.756Z,1001.34
2017-09-15T12:02:45.815Z,1001.38
2017-09-15T12:03:45.760Z,1001.33
2017-09-15T12:04:45.801Z,1001.30
2017-09-15T12:05:45.796Z,1001.32
2017-09-15T12:06:45.786Z,1001.35
2017-09-15T12:07:45.823Z,1001.24
2017-09-15T12:08:45.758Z,1001.31